Time;durP1;ratioP1;P1;durP2;ratioP2;P2;SDS_P1;SDS_P2;PMS_P1;PMS_P2;Temp;Humidity;BMP_temperature;BMP_pressure;BME280_temperature;BME280_humidity;BME280_pressure;Samples;Min_cycle;Max_cycle;Signal;HPM_P1;HPM_P2
2022/11/23 00:01:48;;;;;;;27.90;18.77;;;;;;;6.51;100.00;91845.66;5110027;28;20089;-71
2022/11/23 00:04:15;;;;;;;26.95;18.80;;;;;;;6.55;100.00;91850.13;5076650;28;20055;-71
2022/11/23 00:06:41;;;;;;;28.13;18.70;;;;;;;6.60;100.00;91859.66;5109327;28;20097;-71
2022/11/23 00:09:10;;;;;;;21.25;14.88;;;;;;;6.59;100.00;91854.78;5110284;28;20097;-71
2022/11/23 00:11:38;;;;;;;22.38;15.88;;;;;;;6.62;100.00;91849.25;5110787;28;20101;-71
2022/11/23 00:14:04;;;;;;;14.65;9.60;;;;;;;6.51;100.00;91843.91;5110435;28;20109;-71
2022/11/23 00:16:31;;;;;;;14.60;8.85;;;;;;;6.53;100.00;91844.44;5110679;28;20055;-71
2022/11/23 00:19:00;;;;;;;11.93;8.27;;;;;;;6.57;100.00;91842.22;5110057;28;20594;-71
2022/11/23 00:21:28;;;;;;;11.40;8.35;;;;;;;6.59;100.00;91837.69;5110364;28;20509;-71
2022/11/23 00:23:55;;;;;;;11.45;7.80;;;;;;;6.59;100.00;91840.25;5110144;28;20052;-71
2022/11/23 00:26:22;;;;;;;9.77;7.70;;;;;;;6.60;100.00;91841.00;5109650;28;20071;-71
2022/11/23 00:28:50;;;;;;;9.63;7.00;;;;;;;6.59;100.00;91839.47;5110775;28;20043;-71
2022/11/23 00:31:19;;;;;;;8.27;6.05;;;;;;;6.54;100.00;91843.44;5110052;28;20505;-71
2022/11/23 00:33:49;;;;;;;10.70;7.68;;;;;;;6.52;100.00;91831.91;5110264;28;20054;-70
2022/11/23 00:36:16;;;;;;;9.52;5.95;;;;;;;6.50;100.00;91832.13;5109847;28;20496;-70
2022/11/23 00:38:44;;;;;;;8.93;6.53;;;;;;;6.58;100.00;91828.50;5110404;28;20047;-70
2022/11/23 00:41:13;;;;;;;9.55;6.70;;;;;;;6.65;100.00;91834.28;5109818;28;20059;-70
2022/11/23 00:43:40;;;;;;;9.82;6.45;;;;;;;6.69;100.00;91829.50;5109809;28;20100;-70
2022/11/23 00:46:12;;;;;;;10.60;6.47;;;;;;;6.74;100.00;91829.63;5110059;28;20082;-71
2022/11/23 00:48:39;;;;;;;9.57;7.20;;;;;;;6.76;100.00;91830.16;5109687;28;20047;-71
2022/11/23 00:51:07;;;;;;;8.90;6.55;;;;;;;6.76;100.00;91829.41;5110096;28;20047;-71
2022/11/23 00:53:34;;;;;;;9.48;6.32;;;;;;;6.83;100.00;91842.84;5077194;28;20079;-71
2022/11/23 00:56:01;;;;;;;10.45;7.03;;;;;;;6.87;100.00;91845.72;5085838;28;20540;-71
2022/11/23 00:58:28;;;;;;;17.48;10.60;;;;;;;6.77;100.00;91836.06;5109704;28;20129;-71
2022/11/23 01:01:06;;;;;;;15.23;9.90;;;;;;;6.76;100.00;91837.81;5110187;28;20051;-71
2022/11/23 01:03:35;;;;;;;13.10;7.82;;;;;;;6.72;100.00;91831.63;5109925;28;20152;-71
2022/11/23 01:06:04;;;;;;;13.68;9.10;;;;;;;6.65;100.00;91836.81;5109852;28;20078;-71
2022/11/23 01:08:31;;;;;;;12.55;8.63;;;;;;;6.35;100.00;91840.19;5109769;28;20505;-71
2022/11/23 01:11:02;;;;;;;12.73;8.68;;;;;;;6.26;100.00;91842.25;5109763;28;20079;-71
2022/11/23 01:13:29;;;;;;;10.13;8.00;;;;;;;6.28;100.00;91819.88;5109752;28;20093;-71
2022/11/23 01:15:56;;;;;;;8.48;6.43;;;;;;;6.36;100.00;91813.69;5109860;28;20044;-71
2022/11/23 01:18:22;;;;;;;11.65;8.27;;;;;;;6.38;100.00;91810.91;5109856;28;20051;-71
2022/11/23 01:20:51;;;;;;;12.23;7.75;;;;;;;6.39;100.00;91810.69;5109947;28;20048;-70
2022/11/23 01:23:18;;;;;;;8.00;6.05;;;;;;;6.32;100.00;91806.69;5109787;28;20117;-70
2022/11/23 01:25:44;;;;;;;10.43;6.75;;;;;;;6.33;100.00;91801.38;5109389;28;20047;-70
2022/11/23 01:28:11;;;;;;;10.25;6.22;;;;;;;6.41;100.00;91808.72;5110098;28;20043;-71
2022/11/23 01:30:38;;;;;;;9.15;5.80;;;;;;;6.49;100.00;91812.72;5109726;28;20051;-71
2022/11/23 01:33:05;;;;;;;7.70;5.43;;;;;;;6.52;100.00;91809.72;5109431;28;20097;-71
2022/11/23 01:35:31;;;;;;;9.00;5.65;;;;;;;6.63;100.00;91815.06;5109487;28;20574;-70
2022/11/23 01:37:59;;;;;;;6.85;4.47;;;;;;;6.60;100.00;91803.53;5111616;28;20402;-70
2022/11/23 01:40:26;;;;;;;8.45;4.47;;;;;;;6.75;100.00;91813.31;5093300;28;20084;-71
2022/11/23 01:42:55;;;;;;;6.68;4.32;;;;;;;6.78;100.00;91807.78;5105480;28;20681;-72
2022/11/23 01:45:40;;;;;;;4.88;3.90;;;;;;;6.81;100.00;91806.56;5113634;28;20361;-71
2022/11/23 01:48:13;;;;;;;6.83;4.37;;;;;;;6.85;100.00;91817.09;5087850;28;20048;-71
2022/11/23 01:50:40;;;;;;;7.50;4.78;;;;;;;6.89;100.00;91815.66;5072678;28;20072;-71
2022/11/23 01:53:08;;;;;;;5.30;4.50;;;;;;;6.88;100.00;91802.13;5072175;28;20165;-71
2022/11/23 01:55:36;;;;;;;7.10;5.00;;;;;;;6.92;100.00;91813.44;5072291;28;20072;-71
2022/11/23 01:58:06;;;;;;;8.13;4.78;;;;;;;6.93;100.00;91815.00;5071918;28;20060;-71
2022/11/23 02:00:33;;;;;;;5.70;4.40;;;;;;;6.99;100.00;91815.88;5072140;28;20045;-71
2022/11/23 02:03:05;;;;;;;5.32;4.28;;;;;;;7.00;100.00;91804.69;5071605;28;20048;-71
2022/11/23 02:05:37;;;;;;;5.38;4.57;;;;;;;6.99;100.00;91785.22;5071479;28;20049;-71
2022/11/23 02:08:05;;;;;;;5.68;4.30;;;;;;;6.91;100.00;91788.13;5071968;28;20048;-71
2022/11/23 02:10:35;;;;;;;6.50;4.00;;;;;;;6.99;100.00;91790.34;5072274;28;20045;-71
2022/11/23 02:13:04;;;;;;;7.10;4.47;;;;;;;7.03;100.00;91790.69;5072631;28;20145;-71
2022/11/23 02:15:32;;;;;;;5.65;4.60;;;;;;;7.08;100.00;91790.78;5072094;28;20068;-71
2022/11/23 02:18:01;;;;;;;4.75;4.05;;;;;;;7.10;100.00;91793.91;5072059;28;20587;-71
2022/11/23 02:20:27;;;;;;;6.95;4.85;;;;;;;7.14;100.00;91799.34;5072257;28;20072;-71
2022/11/23 02:23:27;;;;;;;7.85;5.45;;;;;;;7.16;100.00;91798.13;5072588;28;20052;-71
2022/11/23 02:26:16;;;;;;;6.65;4.55;;;;;;;6.77;100.00;91742.41;4985765;28;20110;-71
2022/11/23 02:28:46;;;;;;;6.30;4.85;;;;;;;7.17;100.00;91791.25;5092539;28;20043;-72
2022/11/23 02:32:08;;;;;;;6.30;4.55;;;;;;;7.13;100.00;91779.91;5092716;28;20055;-72
2022/11/23 02:35:02;;;;;;;5.15;4.47;;;;;;;7.22;100.00;91793.88;5075911;28;20051;-72
2022/11/23 02:37:29;;;;;;;8.57;6.05;;;;;;;7.09;100.00;91782.91;5093404;28;20550;-73
2022/11/23 02:39:56;;;;;;;11.15;6.55;;;;;;;7.06;100.00;91770.59;5092380;28;20409;-72
2022/11/23 02:42:45;;;;;;;7.45;5.85;;;;;;;6.92;100.00;91744.53;5093251;28;20083;-72
2022/11/23 02:45:18;;;;;;;7.90;6.88;;;;;;;7.02;100.00;91763.59;5086872;28;20504;-71
2022/11/23 02:47:47;;;;;;;7.28;6.32;;;;;;;7.01;100.00;91747.50;5092386;28;20535;-72
2022/11/23 02:50:14;;;;;;;7.82;5.95;;;;;;;7.05;100.00;91743.50;5091554;28;20135;-72
2022/11/23 02:52:49;;;;;;;9.93;7.32;;;;;;;7.11;100.00;91746.16;5092259;28;20082;-72
2022/11/23 02:55:16;;;;;;;7.78;6.32;;;;;;;7.13;100.00;91736.50;5092621;28;20052;-71
2022/11/23 02:57:44;;;;;;;12.77;10.55;;;;;;;7.15;100.00;91739.59;5091316;28;20497;-70
2022/11/23 03:00:12;;;;;;;8.00;6.80;;;;;;;7.14;100.00;91732.94;5091533;28;20052;-71
2022/11/23 03:02:38;;;;;;;8.40;6.65;;;;;;;7.13;100.00;91727.06;5091281;28;20140;-70
2022/11/23 03:05:06;;;;;;;9.23;7.00;;;;;;;7.15;100.00;91721.72;5091646;28;20044;-70
2022/11/23 03:07:33;;;;;;;7.60;6.18;;;;;;;7.10;100.00;91722.41;5091445;28;20084;-70
2022/11/23 03:09:59;;;;;;;7.78;6.18;;;;;;;6.94;100.00;91721.31;5091246;28;20513;-71
2022/11/23 03:12:27;;;;;;;9.05;7.80;;;;;;;6.73;100.00;91718.34;5091115;28;20044;-70
2022/11/23 03:14:55;;;;;;;12.82;9.80;;;;;;;6.47;100.00;91711.91;5091626;28;20089;-71
2022/11/23 03:17:21;;;;;;;11.25;9.73;;;;;;;6.52;100.00;91728.09;5091331;28;20071;-72
2022/11/23 03:19:48;;;;;;;12.32;9.32;;;;;;;6.50;100.00;91729.31;5091308;28;20075;-71
2022/11/23 03:22:15;;;;;;;10.75;7.57;;;;;;;6.51;100.00;91720.66;5091078;28;20564;-71
2022/11/23 03:24:41;;;;;;;20.55;11.65;;;;;;;6.55;100.00;91717.47;5090925;28;20048;-71
2022/11/23 03:27:08;;;;;;;16.63;11.38;;;;;;;6.43;100.00;91716.66;5090930;28;20044;-70
2022/11/23 03:29:35;;;;;;;12.40;8.25;;;;;;;6.45;100.00;91707.03;5090929;28;20446;-70
2022/11/23 03:32:03;;;;;;;14.23;10.02;;;;;;;6.51;100.00;91718.09;5090718;28;20477;-71
2022/11/23 03:34:30;;;;;;;13.85;10.68;;;;;;;6.54;100.00;91718.44;5091499;28;20093;-71
2022/11/23 03:36:56;;;;;;;9.95;7.57;;;;;;;6.56;100.00;91718.22;5091117;28;20040;-70
2022/11/23 03:39:26;;;;;;;11.25;7.45;;;;;;;6.62;100.00;91719.88;5091053;28;20459;-71
2022/11/23 03:41:53;;;;;;;11.25;7.82;;;;;;;6.58;100.00;91705.25;5090931;28;20044;-70
2022/11/23 03:44:20;;;;;;;14.48;9.18;;;;;;;6.75;100.00;91711.22;5090784;28;20099;-71
2022/11/23 03:46:46;;;;;;;13.90;8.98;;;;;;;6.76;100.00;91712.78;5090898;28;20052;-70
2022/11/23 03:49:14;;;;;;;6.40;4.60;;;;;;;6.84;100.00;91718.56;5090578;28;20188;-70
2022/11/23 03:51:41;;;;;;;7.15;5.03;;;;;;;6.92;100.00;91713.09;5090079;28;20160;-71
2022/11/23 03:54:08;;;;;;;5.82;3.90;;;;;;;7.02;100.00;91710.75;5090217;28;20048;-71
2022/11/23 03:56:35;;;;;;;5.07;3.55;;;;;;;7.03;100.00;91707.22;5089921;28;20048;-71
2022/11/23 03:59:01;;;;;;;5.43;4.00;;;;;;;7.07;100.00;91728.75;5090223;28;20102;-71
2022/11/23 04:01:28;;;;;;;5.38;3.70;;;;;;;7.15;100.00;91727.63;5089421;28;20531;-72
2022/11/23 04:03:55;;;;;;;6.82;4.28;;;;;;;7.19;100.00;91730.50;5090710;28;20109;-71
2022/11/23 04:06:23;;;;;;;7.07;4.82;;;;;;;7.21;100.00;91741.25;5090379;28;20105;-71
2022/11/23 04:08:49;;;;;;;8.07;4.88;;;;;;;7.22;100.00;91741.03;5090196;28;20582;-71
2022/11/23 04:11:16;;;;;;;6.93;5.38;;;;;;;7.28;100.00;91744.47;5090426;28;20052;-71
2022/11/23 04:13:43;;;;;;;6.00;5.20;;;;;;;7.31;100.00;91733.78;5090732;28;20097;-70
2022/11/23 04:16:09;;;;;;;6.15;3.72;;;;;;;7.40;100.00;91729.09;5090170;28;20083;-71
2022/11/23 04:18:36;;;;;;;7.25;5.68;;;;;;;7.48;100.00;91730.53;5090160;28;20055;-70
2022/11/23 04:21:03;;;;;;;5.28;4.45;;;;;;;7.51;100.00;91732.66;5089856;28;20497;-70
2022/11/23 04:23:31;;;;;;;5.20;3.70;;;;;;;7.57;100.00;91741.16;5090243;28;20044;-70
2022/11/23 04:25:57;;;;;;;2.85;2.15;;;;;;;7.59;100.00;91746.84;5089905;28;20561;-71
2022/11/23 04:28:24;;;;;;;3.70;1.52;;;;;;;7.68;100.00;91750.56;5090099;28;20117;-71
2022/11/23 04:30:51;;;;;;;2.50;1.80;;;;;;;7.69;100.00;91753.91;5089881;28;20047;-71
2022/11/23 04:33:17;;;;;;;4.30;1.95;;;;;;;7.73;100.00;91752.47;5089816;28;20614;-71
2022/11/23 04:35:44;;;;;;;2.80;1.90;;;;;;;7.71;100.00;91762.91;5090122;28;20043;-72
2022/11/23 04:38:11;;;;;;;3.08;1.65;;;;;;;7.74;100.00;91767.56;5090142;28;20051;-71
2022/11/23 04:40:39;;;;;;;3.25;1.60;;;;;;;7.75;100.00;91768.34;5089889;28;20667;-71
2022/11/23 04:43:06;;;;;;;2.33;1.70;;;;;;;7.74;100.00;91770.09;5090224;28;20127;-71
2022/11/23 04:45:33;;;;;;;2.55;1.70;;;;;;;7.75;100.00;91771.69;5089596;28;20559;-70
2022/11/23 04:48:00;;;;;;;2.60;1.70;;;;;;;7.73;100.00;91760.13;5089569;28;20049;-71
2022/11/23 04:50:26;;;;;;;3.00;1.55;;;;;;;7.77;100.00;91771.44;5089531;28;20578;-71
2022/11/23 04:52:53;;;;;;;2.10;1.50;;;;;;;7.81;100.00;91767.44;5089879;28;20048;-71
2022/11/23 04:55:20;;;;;;;3.15;2.08;;;;;;;7.82;100.00;91779.19;5089571;28;20465;-70
2022/11/23 04:57:48;;;;;;;4.97;2.80;;;;;;;7.83;100.00;91778.19;5089382;28;20109;-71
2022/11/23 05:00:15;;;;;;;4.97;3.03;;;;;;;7.84;100.00;91776.41;5089410;28;20554;-71
2022/11/23 05:02:42;;;;;;;6.70;3.72;;;;;;;7.80;100.00;91771.00;5089388;28;20489;-71
2022/11/23 05:05:09;;;;;;;5.40;3.70;;;;;;;7.81;100.00;91775.09;5089528;28;20148;-71
2022/11/23 05:07:36;;;;;;;5.20;3.70;;;;;;;7.78;100.00;91770.44;5089999;28;20106;-71
2022/11/23 05:10:03;;;;;;;6.93;4.28;;;;;;;7.79;100.00;91768.66;5089398;28;20106;-71
2022/11/23 05:12:30;;;;;;;5.97;3.90;;;;;;;7.80;100.00;91776.09;5090854;28;20132;-71
2022/11/23 05:14:58;;;;;;;6.50;4.30;;;;;;;7.78;100.00;91780.66;5093870;28;20059;-71
2022/11/23 05:17:25;;;;;;;5.93;4.57;;;;;;;7.77;100.00;91763.00;5093760;28;20062;-71
2022/11/23 05:19:52;;;;;;;11.68;5.38;;;;;;;7.75;100.00;91766.56;5093839;28;20083;-71
2022/11/23 05:22:18;;;;;;;11.45;5.00;;;;;;;7.69;100.00;91759.78;5093454;28;20056;-71
2022/11/23 05:24:45;;;;;;;5.90;4.32;;;;;;;7.70;100.00;91761.38;5093450;28;20044;-71
2022/11/23 05:27:12;;;;;;;7.63;4.90;;;;;;;7.65;100.00;91757.91;5093223;28;20097;-71
2022/11/23 05:29:39;;;;;;;8.13;4.95;;;;;;;7.57;100.00;91748.84;5093422;28;20084;-71
2022/11/23 05:32:07;;;;;;;12.25;4.93;;;;;;;7.52;100.00;91756.41;5093220;28;20578;-70
2022/11/23 05:34:34;;;;;;;7.43;4.90;;;;;;;7.53;100.00;91757.94;5093529;28;20098;-71
2022/11/23 05:37:00;;;;;;;6.80;5.10;;;;;;;7.46;100.00;91760.66;5092865;28;20524;-71
2022/11/23 05:39:27;;;;;;;12.07;6.15;;;;;;;7.47;100.00;91747.66;5093322;28;20397;-72
2022/11/23 05:41:54;;;;;;;12.07;5.72;;;;;;;7.45;100.00;91741.97;5093127;28;20048;-71
2022/11/23 05:44:21;;;;;;;6.75;5.57;;;;;;;7.50;100.00;91741.28;5092958;28;20052;-71
2022/11/23 05:46:47;;;;;;;6.97;5.90;;;;;;;7.53;100.00;91732.41;5092852;28;20047;-71
2022/11/23 05:49:15;;;;;;;14.95;8.07;;;;;;;7.59;100.00;91739.94;5092870;28;20084;-71
2022/11/23 05:51:42;;;;;;;12.90;6.90;;;;;;;7.66;100.00;91744.91;5092950;28;20048;-71
2022/11/23 05:54:09;;;;;;;19.15;9.05;;;;;;;7.71;100.00;91737.34;5092772;28;20105;-71
2022/11/23 05:56:36;;;;;;;14.52;10.50;;;;;;;7.73;100.00;91737.88;5092601;28;20052;-71
2022/11/23 05:59:04;;;;;;;18.90;11.18;;;;;;;7.75;100.00;91747.88;5092851;28;20401;-71
2022/11/23 06:01:31;;;;;;;14.55;10.15;;;;;;;7.76;100.00;91746.88;5093053;28;20052;-71
2022/11/23 06:03:58;;;;;;;13.93;9.20;;;;;;;7.75;100.00;91746.13;5092706;28;20051;-71
2022/11/23 06:06:26;;;;;;;18.20;10.35;;;;;;;7.80;100.00;91744.63;5092854;28;20121;-71
2022/11/23 06:08:53;;;;;;;15.57;10.60;;;;;;;7.82;100.00;91750.31;5092896;28;20078;-71
2022/11/23 06:11:19;;;;;;;16.35;8.85;;;;;;;7.82;100.00;91758.00;5092628;28;20101;-71
2022/11/23 06:13:47;;;;;;;10.02;7.10;;;;;;;7.80;100.00;91753.09;5092596;28;20044;-71
2022/11/23 06:16:14;;;;;;;7.45;6.25;;;;;;;7.74;100.00;91754.00;5092487;28;20056;-72
2022/11/23 06:18:57;;;;;;;9.98;5.57;;;;;;;7.73;100.00;91753.22;5092780;28;20393;-73
2022/11/23 06:21:24;;;;;;;10.85;5.22;;;;;;;7.82;100.00;91770.78;5092404;28;20450;-71
2022/11/23 06:23:52;;;;;;;8.18;5.80;;;;;;;7.79;100.00;91771.22;5091104;28;20097;-71
2022/11/23 06:26:18;;;;;;;9.60;4.93;;;;;;;7.77;100.00;91776.53;5091964;28;20446;-71
2022/11/23 06:28:45;;;;;;;8.60;5.15;;;;;;;7.73;100.00;91771.13;5092415;28;20113;-71
2022/11/23 06:31:12;;;;;;;6.72;4.80;;;;;;;7.81;100.00;91784.53;5092528;28;20048;-71
2022/11/23 06:33:38;;;;;;;10.65;5.25;;;;;;;7.62;100.00;91748.94;5092233;28;20052;-72
2022/11/23 06:36:06;;;;;;;9.90;5.47;;;;;;;7.89;100.00;91768.84;5092285;28;20077;-71
2022/11/23 06:38:33;;;;;;;6.85;4.85;;;;;;;7.95;100.00;91770.47;5092004;28;20101;-71
2022/11/23 06:41:02;;;;;;;9.27;5.53;;;;;;;8.00;100.00;91769.78;5092087;28;20410;-71
2022/11/23 06:43:29;;;;;;;8.30;5.45;;;;;;;8.04;100.00;91765.00;5091943;28;20554;-71
2022/11/23 06:45:56;;;;;;;12.85;5.10;;;;;;;7.96;100.00;91761.81;5092021;28;20090;-72
2022/11/23 06:48:23;;;;;;;9.52;5.05;;;;;;;8.09;100.00;91762.53;5092345;28;20083;-71
2022/11/23 06:50:50;;;;;;;9.43;4.00;;;;;;;8.05;100.00;91766.56;5091977;28;20052;-71
2022/11/23 06:53:17;;;;;;;7.85;3.75;;;;;;;8.22;100.00;91772.47;5091966;28;20455;-72
2022/11/23 06:55:46;;;;;;;6.82;3.70;;;;;;;8.33;100.00;91762.41;5091809;28;20044;-72
2022/11/23 06:58:14;;;;;;;5.63;2.70;;;;;;;8.40;100.00;91763.81;5091474;28;20059;-71
2022/11/23 07:00:41;;;;;;;10.30;2.80;;;;;;;8.53;100.00;91775.53;5091697;28;20044;-71
2022/11/23 07:03:18;;;;;;;6.60;3.00;;;;;;;8.64;100.00;91779.06;5091785;28;20048;-71
2022/11/23 07:05:45;;;;;;;9.20;3.42;;;;;;;8.69;100.00;91780.91;5091227;28;20040;-71
2022/11/23 07:08:11;;;;;;;7.60;2.53;;;;;;;8.75;100.00;91792.00;5091270;28;20073;-71
2022/11/23 07:10:38;;;;;;;6.25;2.70;;;;;;;8.73;100.00;91791.44;5091584;28;20092;-72
2022/11/23 07:13:05;;;;;;;4.53;2.95;;;;;;;8.65;100.00;91795.97;5091134;28;20492;-71
2022/11/23 07:15:34;;;;;;;6.63;3.83;;;;;;;8.58;100.00;91794.56;5091039;28;20052;-71
2022/11/23 07:18:01;;;;;;;7.80;3.72;;;;;;;8.63;100.00;91803.09;5073822;28;20092;-71
2022/11/23 07:20:28;;;;;;;7.28;4.25;;;;;;;8.67;100.00;91804.16;5090151;28;20135;-72
2022/11/23 07:23:00;;;;;;;9.95;4.45;;;;;;;8.67;100.00;91801.59;5090847;28;20129;-72
2022/11/23 07:25:26;;;;;;;8.75;4.63;;;;;;;8.74;100.00;91801.47;5090898;28;20047;-73
2022/11/23 07:27:55;;;;;;;10.80;4.35;;;;;;;8.81;100.00;91802.06;5091151;28;20113;-72
2022/11/23 07:30:22;;;;;;;14.07;4.57;;;;;;;8.90;100.00;91802.50;5090420;28;20048;-72
2022/11/23 07:32:50;;;;;;;8.30;4.60;;;;;;;8.99;100.00;91809.75;5090880;28;20075;-71
2022/11/23 07:35:18;;;;;;;10.52;5.63;;;;;;;9.04;100.00;91810.63;5090975;28;20052;-72
2022/11/23 07:37:45;;;;;;;13.57;6.90;;;;;;;9.23;100.00;91811.13;5090793;28;20515;-72
2022/11/23 07:40:11;;;;;;;13.75;7.78;;;;;;;9.38;100.00;91809.00;5090614;28;20052;-71
2022/11/23 07:42:38;;;;;;;11.63;7.07;;;;;;;9.56;100.00;91815.63;5090475;28;20074;-71
2022/11/23 07:45:06;;;;;;;13.98;7.32;;;;;;;9.58;100.00;91803.38;5090909;28;20097;-71
2022/11/23 07:47:33;;;;;;;13.63;7.00;;;;;;;9.71;100.00;91808.13;5090708;28;20074;-72
2022/11/23 07:50:01;;;;;;;11.60;5.63;;;;;;;9.81;100.00;91806.72;5090378;28;20492;-72
2022/11/23 07:52:28;;;;;;;10.43;4.95;;;;;;;9.93;100.00;91807.34;5090367;28;20079;-72
2022/11/23 07:54:54;;;;;;;9.65;5.03;;;;;;;10.07;100.00;91804.41;5090362;28;20093;-71
2022/11/23 07:57:21;;;;;;;10.98;4.20;;;;;;;10.19;100.00;91805.06;5076932;28;20520;-71
2022/11/23 07:59:48;;;;;;;6.68;3.42;;;;;;;10.24;100.00;91807.66;5103929;28;20455;-71
2022/11/23 08:02:15;;;;;;;7.35;3.00;;;;;;;10.32;100.00;91809.00;5110582;28;20105;-71
2022/11/23 08:04:42;;;;;;;6.75;2.70;;;;;;;10.35;100.00;91808.53;5110466;28;20055;-72
2022/11/23 08:07:10;;;;;;;5.55;2.72;;;;;;;10.32;100.00;91806.44;5110337;28;20039;-71
2022/11/23 08:09:36;;;;;;;5.10;2.65;;;;;;;10.38;100.00;91805.47;5110804;28;20079;-71
2022/11/23 08:12:03;;;;;;;5.57;3.42;;;;;;;10.39;100.00;91811.41;5110251;28;20085;-71
2022/11/23 08:14:30;;;;;;;7.43;2.45;;;;;;;10.35;100.00;91807.75;5110480;28;20439;-71
2022/11/23 08:16:57;;;;;;;4.20;2.45;;;;;;;10.43;100.00;91813.25;5110473;28;20078;-71
2022/11/23 08:19:23;;;;;;;5.55;2.33;;;;;;;10.52;100.00;91825.66;5110628;28;20047;-71
2022/11/23 08:21:51;;;;;;;10.45;2.70;;;;;;;10.65;100.00;91819.38;5110202;28;20051;-71
2022/11/23 08:24:19;;;;;;;7.07;3.20;;;;;;;10.68;100.00;91819.66;5105298;28;20638;-71
2022/11/23 08:26:46;;;;;;;5.85;2.70;;;;;;;10.74;100.00;91823.00;5100958;28;20039;-71
2022/11/23 08:29:12;;;;;;;7.88;3.22;;;;;;;10.75;100.00;91821.22;5110324;28;20122;-71
2022/11/23 08:31:39;;;;;;;22.55;10.30;;;;;;;10.65;100.00;91827.81;5110019;28;20043;-71
2022/11/23 08:34:05;;;;;;;9.93;5.68;;;;;;;10.59;100.00;91830.59;5110004;28;20124;-71
2022/11/23 08:36:32;;;;;;;13.23;4.72;;;;;;;10.52;100.00;91825.66;5110136;28;20455;-71
2022/11/23 08:38:59;;;;;;;8.30;2.42;;;;;;;10.53;100.00;91822.88;5110470;28;20494;-71
2022/11/23 08:41:27;;;;;;;9.07;2.63;;;;;;;10.62;100.00;91822.41;5110225;28;20047;-71
2022/11/23 08:43:54;;;;;;;8.00;2.05;;;;;;;10.64;100.00;91823.72;5110225;28;20055;-71
2022/11/23 08:46:20;;;;;;;8.00;2.47;;;;;;;10.71;100.00;91825.31;5106281;28;20497;-71
2022/11/23 08:48:47;;;;;;;6.55;2.55;;;;;;;10.81;100.00;91828.75;5068760;28;20052;-71
2022/11/23 08:51:14;;;;;;;6.25;2.42;;;;;;;10.85;100.00;91821.31;5069130;28;20048;-71
2022/11/23 08:53:41;;;;;;;5.43;2.30;;;;;;;11.06;100.00;91821.47;5070540;28;20048;-71
2022/11/23 08:56:08;;;;;;;6.70;2.28;;;;;;;10.99;100.00;91806.25;5068897;28;20052;-71
2022/11/23 08:58:36;;;;;;;6.72;2.15;;;;;;;11.11;100.00;91825.88;5068906;28;20052;-71
2022/11/23 09:01:08;;;;;;;12.68;5.18;;;;;;;11.12;100.00;91820.47;5068992;28;20141;-71
2022/11/23 09:03:35;;;;;;;6.05;2.45;;;;;;;11.20;100.00;91824.38;5068931;28;20052;-71
2022/11/23 09:06:01;;;;;;;7.68;3.22;;;;;;;11.28;100.00;91823.91;5071257;28;20117;-71
2022/11/23 09:08:29;;;;;;;6.10;2.33;;;;;;;11.34;100.00;91822.16;5068945;28;20443;-71
2022/11/23 09:11:04;;;;;;;6.18;2.55;;;;;;;11.34;100.00;91804.16;5068369;28;20098;-72
2022/11/23 09:13:31;;;;;;;6.30;1.98;;;;;;;11.45;100.00;91812.69;5069049;28;20044;-71
2022/11/23 09:16:00;;;;;;;6.18;2.25;;;;;;;11.46;100.00;91803.94;5103554;28;20054;-71
2022/11/23 09:18:29;;;;;;;4.60;1.92;;;;;;;11.46;100.00;91801.38;5109607;28;20048;-71
2022/11/23 09:20:56;;;;;;;5.60;1.65;;;;;;;11.57;100.00;91815.84;5092474;28;20044;-71
2022/11/23 09:23:23;;;;;;;3.58;1.33;;;;;;;11.68;100.00;91805.59;5096350;28;20108;-71
2022/11/23 09:25:49;;;;;;;3.85;1.73;;;;;;;11.87;100.00;91803.38;5109385;28;20561;-71
2022/11/23 09:28:18;;;;;;;4.72;1.85;;;;;;;11.67;100.00;91773.19;5080658;28;20044;-71
2022/11/23 09:30:45;;;;;;;3.63;1.42;;;;;;;11.85;100.00;91795.88;5110124;28;20047;-71
2022/11/23 09:33:14;;;;;;;3.95;1.92;;;;;;;11.87;100.00;91799.00;5109655;28;20047;-71
2022/11/23 09:35:40;;;;;;;4.55;1.58;;;;;;;11.92;100.00;91790.50;5109509;28;20089;-71
2022/11/23 09:38:07;;;;;;;4.75;1.20;;;;;;;11.89;100.00;91791.78;5109595;28;20126;-71
2022/11/23 09:40:37;;;;;;;3.15;1.38;;;;;;;12.07;100.00;91789.81;5109671;28;20043;-72
2022/11/23 09:43:17;;;;;;;4.22;1.13;;;;;;;12.15;100.00;91801.41;5109400;28;20078;-72
2022/11/23 09:45:49;;;;;;;5.15;1.35;;;;;;;12.30;100.00;91792.94;5109297;28;20131;-71
2022/11/23 09:48:28;;;;;;;2.65;1.27;;;;;;;12.37;100.00;91800.44;5109137;28;20128;-71
2022/11/23 09:51:00;;;;;;;3.90;1.58;;;;;;;12.35;100.00;91807.66;5109635;28;20128;-71
2022/11/23 09:53:33;;;;;;;4.07;1.60;;;;;;;12.35;100.00;91802.50;5106493;28;20040;-71
2022/11/23 09:56:00;;;;;;;6.28;2.13;;;;;;;12.39;100.00;91803.50;5084508;28;20127;-71
2022/11/23 09:58:33;;;;;;;4.82;1.00;;;;;;;12.45;100.00;91802.50;5109465;28;20108;-71
2022/11/23 10:01:02;;;;;;;2.60;0.90;;;;;;;12.54;100.00;91800.19;5112973;28;20052;-71
2022/11/23 10:03:37;;;;;;;1.90;0.80;;;;;;;12.53;100.00;91791.69;5112979;28;20566;-71
2022/11/23 10:06:14;;;;;;;3.35;0.93;;;;;;;12.59;100.00;91802.00;5112896;27;20104;-71
2022/11/23 10:08:47;;;;;;;7.00;1.05;;;;;;;12.24;100.00;91761.28;5112840;28;20043;-71
2022/11/23 10:11:34;;;;;;;3.55;1.05;;;;;;;12.54;100.00;91790.66;5113236;28;20142;-71
2022/11/23 10:14:14;;;;;;;5.63;1.05;;;;;;;12.55;100.00;91791.44;5112586;28;20093;-71
2022/11/23 10:16:49;;;;;;;2.75;0.90;;;;;;;12.52;100.00;91789.38;5112425;28;20097;-71
2022/11/23 10:19:31;;;;;;;3.67;0.95;;;;;;;12.48;100.00;91775.44;5112468;28;20043;-71
2022/11/23 10:22:09;;;;;;;3.90;1.50;;;;;;;12.53;100.00;91798.63;5112700;28;20774;-71
2022/11/23 10:24:40;;;;;;;3.38;0.80;;;;;;;12.50;100.00;91784.47;5112557;28;20565;-72
2022/11/23 10:27:13;;;;;;;5.82;2.70;;;;;;;12.62;100.00;91781.66;5076048;28;20506;-72
2022/11/23 10:29:41;;;;;;;3.83;1.30;;;;;;;12.71;97.46;91781.91;5083097;28;20051;-72
2022/11/23 10:32:22;;;;;;;4.45;1.55;;;;;;;12.89;99.82;91785.00;5112855;28;20056;-72
2022/11/23 10:34:59;;;;;;;3.72;0.70;;;;;;;12.97;95.20;91779.34;5112697;28;20039;-72
2022/11/23 10:37:26;;;;;;;3.25;0.77;;;;;;;13.04;94.06;91785.00;5109663;28;20124;-72
2022/11/23 10:39:52;;;;;;;3.17;0.80;;;;;;;13.10;94.27;91780.59;5098923;28;20451;-71
2022/11/23 10:42:23;;;;;;;1.77;0.57;;;;;;;13.23;90.37;91780.06;5112562;28;20056;-71
2022/11/23 10:44:51;;;;;;;3.83;0.80;;;;;;;13.39;91.76;91781.84;5112675;28;20105;-72
2022/11/23 10:47:34;;;;;;;2.40;0.73;;;;;;;13.40;90.25;91779.00;5111976;28;20087;-72
2022/11/23 10:50:03;;;;;;;1.83;0.63;;;;;;;13.34;87.66;91780.03;5095361;28;20425;-72
2022/11/23 10:52:32;;;;;;;3.55;1.50;;;;;;;13.33;85.96;91778.50;5090374;28;20051;-72
2022/11/23 10:55:01;;;;;;;2.33;0.70;;;;;;;13.02;86.33;91763.88;5088045;28;20460;-71
2022/11/23 10:57:33;;;;;;;3.17;0.73;;;;;;;13.05;86.67;91780.63;5090493;28;20054;-72
2022/11/23 11:00:03;;;;;;;4.85;0.63;;;;;;;13.16;86.66;91771.84;5112053;27;20059;-71
2022/11/23 11:02:38;;;;;;;4.25;0.70;;;;;;;13.08;87.70;91736.25;5112072;28;20044;-71
2022/11/23 11:05:26;;;;;;;2.58;0.60;;;;;;;13.44;88.17;91772.28;5111771;28;20052;-72
2022/11/23 11:07:55;;;;;;;2.58;0.90;;;;;;;13.53;86.77;91761.44;5087139;28;20044;-71
2022/11/23 11:10:39;;;;;;;7.38;1.30;;;;;;;13.51;85.10;91763.53;5111171;28;20073;-71
2022/11/23 11:13:28;;;;;;;2.50;1.13;;;;;;;13.66;85.07;91758.28;5107900;28;20056;-72
2022/11/23 11:15:58;;;;;;;3.60;1.65;;;;;;;13.56;84.46;91760.94;5109660;28;20489;-71
2022/11/23 11:18:30;;;;;;;4.85;1.73;;;;;;;13.61;84.91;91764.25;5111847;28;20051;-71
2022/11/23 11:21:01;;;;;;;5.43;0.90;;;;;;;13.70;84.84;91759.31;5081058;28;20544;-72
2022/11/23 11:23:30;;;;;;;3.38;0.95;;;;;;;13.67;82.01;91753.91;5070118;28;20097;-72
2022/11/23 11:26:11;;;;;;;3.67;1.23;;;;;;;13.63;83.73;91749.28;5083324;28;20044;-72
2022/11/23 11:28:41;;;;;;;3.70;1.10;;;;;;;13.44;84.36;91745.72;5088927;28;20048;-72
2022/11/23 11:31:30;;;;;;;3.38;1.00;;;;;;;13.54;84.50;91739.75;5097225;28;20136;-72
2022/11/23 11:34:06;;;;;;;4.15;1.58;;;;;;;13.62;84.03;91741.81;5070834;28;20056;-72
2022/11/23 11:36:40;;;;;;;6.57;2.97;;;;;;;13.60;82.30;91733.53;5085720;28;20052;-71
2022/11/23 11:39:15;;;;;;;4.78;1.90;;;;;;;13.55;81.81;91736.94;5110963;28;20044;-72